sensor_id;sensor_type;location;lat;lon;timestamp;P1;durP1;ratioP1;P2;durP2;ratioP2
59734;SDS011;64362;45.620;4.920;2023-03-01T00:00:38;3.67;;;3.13;;
59734;SDS011;64362;45.620;4.920;2023-03-01T00:03:04;4.22;;;3.50;;
59734;SDS011;64362;45.620;4.920;2023-03-01T00:05:29;5.65;;;3.20;;
59734;SDS011;64362;45.620;4.920;2023-03-01T00:07:55;3.47;;;2.92;;
59734;SDS011;64362;45.620;4.920;2023-03-01T00:10:20;4.43;;;3.53;;
59734;SDS011;64362;45.620;4.920;2023-03-01T00:12:46;4.32;;;3.28;;
59734;SDS011;64362;45.620;4.920;2023-03-01T00:15:11;4.47;;;3.40;;
59734;SDS011;64362;45.620;4.920;2023-03-01T00:17:37;4.82;;;3.47;;
59734;SDS011;64362;45.620;4.920;2023-03-01T00:20:02;5.32;;;4.15;;
59734;SDS011;64362;45.620;4.920;2023-03-01T00:22:28;4.28;;;3.42;;
59734;SDS011;64362;45.620;4.920;2023-03-01T00:24:54;4.00;;;3.60;;
59734;SDS011;64362;45.620;4.920;2023-03-01T00:27:19;4.13;;;3.47;;
59734;SDS011;64362;45.620;4.920;2023-03-01T00:29:45;4.60;;;3.50;;
59734;SDS011;64362;45.620;4.920;2023-03-01T00:32:10;4.35;;;3.20;;
59734;SDS011;64362;45.620;4.920;2023-03-01T00:34:36;4.72;;;3.60;;
59734;SDS011;64362;45.620;4.920;2023-03-01T00:37:01;4.63;;;3.60;;
59734;SDS011;64362;45.620;4.920;2023-03-01T00:39:30;4.30;;;3.30;;
59734;SDS011;64362;45.620;4.920;2023-03-01T00:41:56;4.50;;;3.20;;
59734;SDS011;64362;45.620;4.920;2023-03-01T00:44:22;4.13;;;3.40;;
59734;SDS011;64362;45.620;4.920;2023-03-01T00:46:48;4.68;;;3.88;;
59734;SDS011;64362;45.620;4.920;2023-03-01T00:49:14;4.78;;;3.85;;
59734;SDS011;64362;45.620;4.920;2023-03-01T00:51:39;4.20;;;3.33;;
59734;SDS011;64362;45.620;4.920;2023-03-01T00:54:09;4.55;;;3.80;;
59734;SDS011;64362;45.620;4.920;2023-03-01T00:56:35;4.93;;;3.70;;
59734;SDS011;64362;45.620;4.920;2023-03-01T00:59:00;4.85;;;3.90;;
59734;SDS011;64362;45.620;4.920;2023-03-01T01:01:27;4.15;;;3.45;;
59734;SDS011;64362;45.620;4.920;2023-03-01T01:03:57;3.97;;;3.28;;
59734;SDS011;64362;45.620;4.920;2023-03-01T01:06:25;5.75;;;3.70;;
59734;SDS011;64362;45.620;4.920;2023-03-01T01:08:53;4.57;;;3.60;;
59734;SDS011;64362;45.620;4.920;2023-03-01T01:11:19;3.83;;;3.28;;
59734;SDS011;64362;45.620;4.920;2023-03-01T01:13:46;3.85;;;3.45;;
59734;SDS011;64362;45.620;4.920;2023-03-01T01:16:12;4.03;;;3.63;;
59734;SDS011;64362;45.620;4.920;2023-03-01T01:18:39;4.57;;;4.00;;
59734;SDS011;64362;45.620;4.920;2023-03-01T01:21:07;4.60;;;3.80;;
59734;SDS011;64362;45.620;4.920;2023-03-01T01:23:35;4.60;;;4.03;;
59734;SDS011;64362;45.620;4.920;2023-03-01T01:26:08;4.55;;;3.58;;
59734;SDS011;64362;45.620;4.920;2023-03-01T01:28:36;3.90;;;3.40;;
59734;SDS011;64362;45.620;4.920;2023-03-01T01:31:02;4.10;;;3.22;;
59734;SDS011;64362;45.620;4.920;2023-03-01T01:33:28;4.13;;;3.60;;
59734;SDS011;64362;45.620;4.920;2023-03-01T01:35:53;7.47;;;3.85;;
59734;SDS011;64362;45.620;4.920;2023-03-01T01:38:19;3.75;;;3.30;;
59734;SDS011;64362;45.620;4.920;2023-03-01T01:40:45;3.70;;;3.10;;
59734;SDS011;64362;45.620;4.920;2023-03-01T01:46:16;4.68;;;3.78;;
59734;SDS011;64362;45.620;4.920;2023-03-01T01:48:57;4.43;;;3.92;;
59734;SDS011;64362;45.620;4.920;2023-03-01T01:51:25;4.35;;;3.30;;
59734;SDS011;64362;45.620;4.920;2023-03-01T01:53:56;5.00;;;3.67;;
59734;SDS011;64362;45.620;4.920;2023-03-01T01:56:24;4.60;;;3.70;;
59734;SDS011;64362;45.620;4.920;2023-03-01T01:58:51;4.75;;;3.78;;
59734;SDS011;64362;45.620;4.920;2023-03-01T02:01:17;4.18;;;3.20;;
59734;SDS011;64362;45.620;4.920;2023-03-01T02:03:43;4.30;;;3.53;;
59734;SDS011;64362;45.620;4.920;2023-03-01T02:06:29;3.92;;;3.40;;
59734;SDS011;64362;45.620;4.920;2023-03-01T02:09:05;4.20;;;3.78;;
59734;SDS011;64362;45.620;4.920;2023-03-01T02:11:33;4.57;;;3.83;;
59734;SDS011;64362;45.620;4.920;2023-03-01T02:13:59;4.25;;;3.35;;
59734;SDS011;64362;45.620;4.920;2023-03-01T02:16:25;3.88;;;3.42;;
59734;SDS011;64362;45.620;4.920;2023-03-01T02:18:51;4.80;;;3.85;;
59734;SDS011;64362;45.620;4.920;2023-03-01T02:23:56;3.47;;;3.17;;
59734;SDS011;64362;45.620;4.920;2023-03-01T02:26:29;4.45;;;3.60;;
59734;SDS011;64362;45.620;4.920;2023-03-01T02:28:58;5.60;;;3.80;;
59734;SDS011;64362;45.620;4.920;2023-03-01T02:31:23;5.07;;;4.00;;
59734;SDS011;64362;45.620;4.920;2023-03-01T02:34:15;4.32;;;3.75;;
59734;SDS011;64362;45.620;4.920;2023-03-01T02:36:49;4.77;;;3.70;;
59734;SDS011;64362;45.620;4.920;2023-03-01T02:41:46;5.43;;;3.67;;
59734;SDS011;64362;45.620;4.920;2023-03-01T02:44:13;4.22;;;3.72;;
59734;SDS011;64362;45.620;4.920;2023-03-01T02:46:43;5.43;;;4.00;;
59734;SDS011;64362;45.620;4.920;2023-03-01T02:56:46;5.20;;;4.22;;
59734;SDS011;64362;45.620;4.920;2023-03-01T02:59:18;4.68;;;3.95;;
59734;SDS011;64362;45.620;4.920;2023-03-01T03:01:45;4.72;;;3.60;;
59734;SDS011;64362;45.620;4.920;2023-03-01T03:04:13;4.57;;;3.92;;
59734;SDS011;64362;45.620;4.920;2023-03-01T03:06:45;4.60;;;3.70;;
59734;SDS011;64362;45.620;4.920;2023-03-01T03:09:13;5.05;;;3.83;;
59734;SDS011;64362;45.620;4.920;2023-03-01T03:11:39;5.65;;;4.05;;
59734;SDS011;64362;45.620;4.920;2023-03-01T03:14:07;4.75;;;3.60;;
59734;SDS011;64362;45.620;4.920;2023-03-01T03:16:48;4.20;;;3.70;;
59734;SDS011;64362;45.620;4.920;2023-03-01T03:19:15;5.13;;;4.22;;
59734;SDS011;64362;45.620;4.920;2023-03-01T03:21:42;5.53;;;4.30;;
59734;SDS011;64362;45.620;4.920;2023-03-01T03:24:07;5.97;;;4.60;;
59734;SDS011;64362;45.620;4.920;2023-03-01T03:26:33;5.72;;;4.68;;
59734;SDS011;64362;45.620;4.920;2023-03-01T03:28:59;4.88;;;4.28;;
59734;SDS011;64362;45.620;4.920;2023-03-01T03:31:25;5.22;;;4.53;;
59734;SDS011;64362;45.620;4.920;2023-03-01T03:33:50;6.22;;;4.68;;
59734;SDS011;64362;45.620;4.920;2023-03-01T03:36:16;5.35;;;4.35;;
59734;SDS011;64362;45.620;4.920;2023-03-01T03:38:44;4.50;;;4.10;;
59734;SDS011;64362;45.620;4.920;2023-03-01T03:41:10;5.00;;;4.05;;
59734;SDS011;64362;45.620;4.920;2023-03-01T03:43:37;5.47;;;3.95;;
59734;SDS011;64362;45.620;4.920;2023-03-01T03:46:04;5.35;;;3.92;;
59734;SDS011;64362;45.620;4.920;2023-03-01T03:48:34;4.35;;;3.55;;
59734;SDS011;64362;45.620;4.920;2023-03-01T03:51:05;5.03;;;4.13;;
59734;SDS011;64362;45.620;4.920;2023-03-01T03:53:31;6.35;;;4.20;;
59734;SDS011;64362;45.620;4.920;2023-03-01T03:55:56;4.93;;;4.00;;
59734;SDS011;64362;45.620;4.920;2023-03-01T03:58:23;5.22;;;3.65;;
59734;SDS011;64362;45.620;4.920;2023-03-01T04:00:50;5.07;;;4.10;;
59734;SDS011;64362;45.620;4.920;2023-03-01T04:03:17;5.55;;;4.30;;
59734;SDS011;64362;45.620;4.920;2023-03-01T04:05:44;4.32;;;3.83;;
59734;SDS011;64362;45.620;4.920;2023-03-01T04:08:10;4.03;;;3.58;;
59734;SDS011;64362;45.620;4.920;2023-03-01T04:10:37;4.13;;;3.67;;
59734;SDS011;64362;45.620;4.920;2023-03-01T04:13:04;5.40;;;4.15;;
59734;SDS011;64362;45.620;4.920;2023-03-01T04:15:31;5.20;;;4.13;;
59734;SDS011;64362;45.620;4.920;2023-03-01T04:17:58;4.78;;;4.13;;
59734;SDS011;64362;45.620;4.920;2023-03-01T04:20:25;5.63;;;4.10;;
59734;SDS011;64362;45.620;4.920;2023-03-01T04:28:23;4.32;;;3.90;;
59734;SDS011;64362;45.620;4.920;2023-03-01T04:30:50;5.78;;;4.00;;
59734;SDS011;64362;45.620;4.920;2023-03-01T04:33:16;7.13;;;3.80;;
59734;SDS011;64362;45.620;4.920;2023-03-01T04:35:41;5.20;;;4.32;;
59734;SDS011;64362;45.620;4.920;2023-03-01T04:38:07;5.88;;;4.30;;
59734;SDS011;64362;45.620;4.920;2023-03-01T04:40:33;7.30;;;4.25;;
59734;SDS011;64362;45.620;4.920;2023-03-01T04:42:59;6.90;;;4.07;;
59734;SDS011;64362;45.620;4.920;2023-03-01T04:45:24;7.35;;;4.50;;
59734;SDS011;64362;45.620;4.920;2023-03-01T04:47:49;6.82;;;4.45;;
59734;SDS011;64362;45.620;4.920;2023-03-01T04:50:17;7.97;;;4.68;;
59734;SDS011;64362;45.620;4.920;2023-03-01T04:52:45;6.00;;;4.80;;
59734;SDS011;64362;45.620;4.920;2023-03-01T04:55:11;7.15;;;4.38;;
59734;SDS011;64362;45.620;4.920;2023-03-01T04:57:37;7.65;;;4.60;;
59734;SDS011;64362;45.620;4.920;2023-03-01T05:00:03;9.30;;;4.85;;
59734;SDS011;64362;45.620;4.920;2023-03-01T05:02:55;5.90;;;4.70;;
59734;SDS011;64362;45.620;4.920;2023-03-01T05:05:24;8.57;;;5.15;;
59734;SDS011;64362;45.620;4.920;2023-03-01T05:07:59;7.03;;;4.72;;
59734;SDS011;64362;45.620;4.920;2023-03-01T05:10:26;6.65;;;4.70;;
59734;SDS011;64362;45.620;4.920;2023-03-01T05:12:54;6.53;;;4.85;;
59734;SDS011;64362;45.620;4.920;2023-03-01T05:15:22;7.07;;;5.00;;
59734;SDS011;64362;45.620;4.920;2023-03-01T05:17:51;8.48;;;5.55;;
59734;SDS011;64362;45.620;4.920;2023-03-01T05:20:17;7.95;;;5.30;;
59734;SDS011;64362;45.620;4.920;2023-03-01T05:22:42;7.68;;;5.22;;
59734;SDS011;64362;45.620;4.920;2023-03-01T05:25:08;7.68;;;5.60;;
59734;SDS011;64362;45.620;4.920;2023-03-01T05:27:34;8.60;;;5.93;;
59734;SDS011;64362;45.620;4.920;2023-03-01T05:30:00;6.80;;;5.32;;
59734;SDS011;64362;45.620;4.920;2023-03-01T05:32:38;6.00;;;5.40;;
59734;SDS011;64362;45.620;4.920;2023-03-01T05:35:15;6.75;;;5.35;;
59734;SDS011;64362;45.620;4.920;2023-03-01T05:37:42;6.43;;;5.45;;
59734;SDS011;64362;45.620;4.920;2023-03-01T05:40:09;6.05;;;5.45;;
59734;SDS011;64362;45.620;4.920;2023-03-01T05:42:44;8.00;;;5.38;;
59734;SDS011;64362;45.620;4.920;2023-03-01T05:45:11;5.88;;;5.28;;
59734;SDS011;64362;45.620;4.920;2023-03-01T05:47:38;6.45;;;5.35;;
59734;SDS011;64362;45.620;4.920;2023-03-01T05:50:09;6.47;;;5.60;;
59734;SDS011;64362;45.620;4.920;2023-03-01T05:52:46;6.07;;;5.03;;
59734;SDS011;64362;45.620;4.920;2023-03-01T05:55:19;6.63;;;5.57;;
59734;SDS011;64362;45.620;4.920;2023-03-01T05:57:46;7.15;;;5.47;;
59734;SDS011;64362;45.620;4.920;2023-03-01T06:00:12;6.32;;;5.72;;
59734;SDS011;64362;45.620;4.920;2023-03-01T06:02:40;6.35;;;5.57;;
59734;SDS011;64362;45.620;4.920;2023-03-01T06:05:06;6.32;;;5.65;;
59734;SDS011;64362;45.620;4.920;2023-03-01T06:07:32;7.75;;;6.00;;
59734;SDS011;64362;45.620;4.920;2023-03-01T06:09:58;6.57;;;5.72;;
59734;SDS011;64362;45.620;4.920;2023-03-01T06:12:23;6.57;;;5.35;;
59734;SDS011;64362;45.620;4.920;2023-03-01T06:14:49;6.90;;;5.28;;
59734;SDS011;64362;45.620;4.920;2023-03-01T06:17:14;6.80;;;6.10;;
59734;SDS011;64362;45.620;4.920;2023-03-01T06:19:40;6.97;;;5.40;;
59734;SDS011;64362;45.620;4.920;2023-03-01T06:22:05;7.00;;;6.00;;
59734;SDS011;64362;45.620;4.920;2023-03-01T06:24:30;6.90;;;5.68;;
59734;SDS011;64362;45.620;4.920;2023-03-01T06:26:56;9.13;;;6.28;;
59734;SDS011;64362;45.620;4.920;2023-03-01T06:29:22;7.78;;;5.90;;
59734;SDS011;64362;45.620;4.920;2023-03-01T06:31:48;7.90;;;6.43;;
59734;SDS011;64362;45.620;4.920;2023-03-01T06:34:13;6.93;;;5.75;;
59734;SDS011;64362;45.620;4.920;2023-03-01T06:36:39;8.50;;;6.60;;
59734;SDS011;64362;45.620;4.920;2023-03-01T06:39:05;9.55;;;6.18;;
59734;SDS011;64362;45.620;4.920;2023-03-01T06:41:31;6.78;;;5.70;;
59734;SDS011;64362;45.620;4.920;2023-03-01T06:43:56;7.00;;;5.82;;
59734;SDS011;64362;45.620;4.920;2023-03-01T06:46:22;8.95;;;5.82;;
59734;SDS011;64362;45.620;4.920;2023-03-01T06:48:47;7.18;;;5.63;;
59734;SDS011;64362;45.620;4.920;2023-03-01T06:51:13;6.80;;;5.03;;
59734;SDS011;64362;45.620;4.920;2023-03-01T06:53:38;6.15;;;5.55;;
59734;SDS011;64362;45.620;4.920;2023-03-01T06:56:03;6.40;;;5.13;;
59734;SDS011;64362;45.620;4.920;2023-03-01T06:58:29;8.48;;;5.50;;
59734;SDS011;64362;45.620;4.920;2023-03-01T07:00:55;8.30;;;5.82;;
59734;SDS011;64362;45.620;4.920;2023-03-01T07:03:20;8.63;;;5.72;;
59734;SDS011;64362;45.620;4.920;2023-03-01T07:05:48;6.97;;;4.95;;
59734;SDS011;64362;45.620;4.920;2023-03-01T07:08:14;8.20;;;5.35;;
59734;SDS011;64362;45.620;4.920;2023-03-01T07:10:40;8.52;;;5.30;;
59734;SDS011;64362;45.620;4.920;2023-03-01T07:13:05;8.32;;;5.68;;
59734;SDS011;64362;45.620;4.920;2023-03-01T07:15:31;6.07;;;5.47;;
59734;SDS011;64362;45.620;4.920;2023-03-01T07:17:58;8.73;;;5.75;;
59734;SDS011;64362;45.620;4.920;2023-03-01T07:20:23;9.05;;;5.95;;
59734;SDS011;64362;45.620;4.920;2023-03-01T07:22:53;10.88;;;6.45;;
59734;SDS011;64362;45.620;4.920;2023-03-01T07:25:20;9.45;;;7.32;;
59734;SDS011;64362;45.620;4.920;2023-03-01T07:27:49;9.80;;;6.70;;
59734;SDS011;64362;45.620;4.920;2023-03-01T07:30:18;7.85;;;6.45;;
59734;SDS011;64362;45.620;4.920;2023-03-01T07:32:44;9.70;;;6.35;;
59734;SDS011;64362;45.620;4.920;2023-03-01T07:35:10;7.60;;;6.22;;
59734;SDS011;64362;45.620;4.920;2023-03-01T07:37:36;9.40;;;6.05;;
59734;SDS011;64362;45.620;4.920;2023-03-01T07:40:01;8.45;;;6.57;;
59734;SDS011;64362;45.620;4.920;2023-03-01T07:42:27;7.78;;;6.30;;
59734;SDS011;64362;45.620;4.920;2023-03-01T07:44:53;7.53;;;6.22;;
59734;SDS011;64362;45.620;4.920;2023-03-01T07:47:18;8.00;;;6.45;;
59734;SDS011;64362;45.620;4.920;2023-03-01T07:49:44;8.32;;;6.38;;
59734;SDS011;64362;45.620;4.920;2023-03-01T07:52:10;7.50;;;6.45;;
59734;SDS011;64362;45.620;4.920;2023-03-01T07:54:37;7.50;;;6.18;;
59734;SDS011;64362;45.620;4.920;2023-03-01T07:57:02;8.55;;;6.40;;
59734;SDS011;64362;45.620;4.920;2023-03-01T07:59:28;7.90;;;6.30;;
59734;SDS011;64362;45.620;4.920;2023-03-01T08:01:57;7.60;;;6.50;;
59734;SDS011;64362;45.620;4.920;2023-03-01T08:04:23;7.97;;;6.78;;
59734;SDS011;64362;45.620;4.920;2023-03-01T08:06:50;8.15;;;6.40;;
59734;SDS011;64362;45.620;4.920;2023-03-01T08:09:16;7.93;;;6.25;;
59734;SDS011;64362;45.620;4.920;2023-03-01T08:11:42;9.07;;;5.95;;
59734;SDS011;64362;45.620;4.920;2023-03-01T08:14:07;8.07;;;6.28;;
59734;SDS011;64362;45.620;4.920;2023-03-01T08:16:33;7.13;;;6.40;;
59734;SDS011;64362;45.620;4.920;2023-03-01T08:19:07;6.88;;;6.10;;
59734;SDS011;64362;45.620;4.920;2023-03-01T08:21:33;7.35;;;5.93;;
59734;SDS011;64362;45.620;4.920;2023-03-01T08:24:00;7.07;;;5.63;;
59734;SDS011;64362;45.620;4.920;2023-03-01T08:26:27;9.57;;;5.88;;
59734;SDS011;64362;45.620;4.920;2023-03-01T08:28:52;7.28;;;5.90;;
59734;SDS011;64362;45.620;4.920;2023-03-01T08:31:22;8.05;;;6.20;;
59734;SDS011;64362;45.620;4.920;2023-03-01T08:34:10;7.43;;;5.68;;
59734;SDS011;64362;45.620;4.920;2023-03-01T08:36:37;6.45;;;5.70;;
59734;SDS011;64362;45.620;4.920;2023-03-01T08:39:05;6.18;;;5.13;;
59734;SDS011;64362;45.620;4.920;2023-03-01T08:41:31;6.03;;;5.43;;
59734;SDS011;64362;45.620;4.920;2023-03-01T08:43:56;6.70;;;5.50;;
59734;SDS011;64362;45.620;4.920;2023-03-01T08:46:28;6.05;;;5.45;;
59734;SDS011;64362;45.620;4.920;2023-03-01T08:48:55;7.25;;;5.70;;
59734;SDS011;64362;45.620;4.920;2023-03-01T08:51:21;6.47;;;5.78;;
59734;SDS011;64362;45.620;4.920;2023-03-01T08:53:47;6.50;;;5.90;;
59734;SDS011;64362;45.620;4.920;2023-03-01T08:56:13;7.45;;;5.63;;
59734;SDS011;64362;45.620;4.920;2023-03-01T08:58:39;7.63;;;5.75;;
59734;SDS011;64362;45.620;4.920;2023-03-01T09:01:08;6.28;;;5.55;;
59734;SDS011;64362;45.620;4.920;2023-03-01T09:03:35;6.63;;;5.40;;
59734;SDS011;64362;45.620;4.920;2023-03-01T09:06:01;6.70;;;5.65;;
59734;SDS011;64362;45.620;4.920;2023-03-01T09:08:27;7.47;;;6.43;;
59734;SDS011;64362;45.620;4.920;2023-03-01T09:11:00;6.40;;;5.80;;
59734;SDS011;64362;45.620;4.920;2023-03-01T09:13:27;6.85;;;6.25;;
59734;SDS011;64362;45.620;4.920;2023-03-01T09:16:02;6.70;;;6.07;;
59734;SDS011;64362;45.620;4.920;2023-03-01T09:18:29;6.90;;;5.75;;
59734;SDS011;64362;45.620;4.920;2023-03-01T09:21:04;7.60;;;6.30;;
59734;SDS011;64362;45.620;4.920;2023-03-01T09:23:34;8.02;;;6.57;;
59734;SDS011;64362;45.620;4.920;2023-03-01T09:26:02;6.68;;;5.82;;
59734;SDS011;64362;45.620;4.920;2023-03-01T09:28:28;7.10;;;6.40;;
59734;SDS011;64362;45.620;4.920;2023-03-01T09:30:53;8.07;;;6.90;;
59734;SDS011;64362;45.620;4.920;2023-03-01T09:33:18;6.47;;;5.88;;
59734;SDS011;64362;45.620;4.920;2023-03-01T09:35:44;7.25;;;6.18;;
59734;SDS011;64362;45.620;4.920;2023-03-01T09:38:14;6.90;;;6.03;;
59734;SDS011;64362;45.620;4.920;2023-03-01T09:40:43;7.03;;;6.22;;
59734;SDS011;64362;45.620;4.920;2023-03-01T09:46:05;6.85;;;6.10;;
59734;SDS011;64362;45.620;4.920;2023-03-01T09:48:37;7.53;;;6.53;;
59734;SDS011;64362;45.620;4.920;2023-03-01T09:51:08;7.20;;;6.43;;
59734;SDS011;64362;45.620;4.920;2023-03-01T09:53:38;7.07;;;6.43;;
59734;SDS011;64362;45.620;4.920;2023-03-01T09:56:16;7.28;;;6.50;;
59734;SDS011;64362;45.620;4.920;2023-03-01T09:59:47;7.88;;;7.07;;
59734;SDS011;64362;45.620;4.920;2023-03-01T10:01:54;8.18;;;7.25;;
59734;SDS011;64362;45.620;4.920;2023-03-01T10:06:57;7.40;;;6.18;;
59734;SDS011;64362;45.620;4.920;2023-03-01T10:09:30;8.35;;;6.40;;
59734;SDS011;64362;45.620;4.920;2023-03-01T10:11:59;7.50;;;6.45;;
59734;SDS011;64362;45.620;4.920;2023-03-01T10:17:02;6.57;;;5.80;;
59734;SDS011;64362;45.620;4.920;2023-03-01T10:19:48;6.80;;;6.10;;
59734;SDS011;64362;45.620;4.920;2023-03-01T10:24:56;7.45;;;5.75;;
59734;SDS011;64362;45.620;4.920;2023-03-01T10:27:29;7.20;;;5.72;;
59734;SDS011;64362;45.620;4.920;2023-03-01T10:30:20;7.32;;;6.10;;
59734;SDS011;64362;45.620;4.920;2023-03-01T10:32:49;6.22;;;5.40;;
59734;SDS011;64362;45.620;4.920;2023-03-01T10:38:02;6.88;;;6.18;;
59734;SDS011;64362;45.620;4.920;2023-03-01T10:43:24;7.53;;;6.20;;
59734;SDS011;64362;45.620;4.920;2023-03-01T10:45:50;6.40;;;5.80;;
59734;SDS011;64362;45.620;4.920;2023-03-01T10:48:17;6.28;;;5.68;;
59734;SDS011;64362;45.620;4.920;2023-03-01T10:50:51;7.03;;;5.97;;
59734;SDS011;64362;45.620;4.920;2023-03-01T10:56:08;6.47;;;5.80;;
59734;SDS011;64362;45.620;4.920;2023-03-01T10:58:36;6.30;;;5.70;;
59734;SDS011;64362;45.620;4.920;2023-03-01T11:01:04;6.28;;;5.53;;
59734;SDS011;64362;45.620;4.920;2023-03-01T11:03:42;6.70;;;5.85;;
59734;SDS011;64362;45.620;4.920;2023-03-01T11:08:37;7.88;;;6.03;;
59734;SDS011;64362;45.620;4.920;2023-03-01T11:14:15;8.60;;;6.53;;
59734;SDS011;64362;45.620;4.920;2023-03-01T11:16:44;7.22;;;6.53;;
59734;SDS011;64362;45.620;4.920;2023-03-01T11:21:41;7.55;;;6.50;;
59734;SDS011;64362;45.620;4.920;2023-03-01T11:24:11;7.07;;;6.35;;
59734;SDS011;64362;45.620;4.920;2023-03-01T11:26:42;7.90;;;7.10;;
59734;SDS011;64362;45.620;4.920;2023-03-01T11:29:13;8.35;;;7.05;;
59734;SDS011;64362;45.620;4.920;2023-03-01T11:31:43;7.70;;;6.90;;
59734;SDS011;64362;45.620;4.920;2023-03-01T11:34:11;8.07;;;7.25;;
59734;SDS011;64362;45.620;4.920;2023-03-01T11:42:48;8.13;;;6.82;;
59734;SDS011;64362;45.620;4.920;2023-03-01T11:45:17;7.80;;;7.00;;
59734;SDS011;64362;45.620;4.920;2023-03-01T11:50:26;9.27;;;7.10;;
59734;SDS011;64362;45.620;4.920;2023-03-01T11:53:04;8.25;;;7.15;;
59734;SDS011;64362;45.620;4.920;2023-03-01T12:01:53;10.05;;;8.32;;
59734;SDS011;64362;45.620;4.920;2023-03-01T12:04:45;9.70;;;7.75;;
59734;SDS011;64362;45.620;4.920;2023-03-01T12:18:29;8.85;;;7.50;;
59734;SDS011;64362;45.620;4.920;2023-03-01T12:24:06;8.45;;;7.60;;
59734;SDS011;64362;45.620;4.920;2023-03-01T12:29:37;8.95;;;7.82;;
59734;SDS011;64362;45.620;4.920;2023-03-01T12:50:53;9.65;;;8.15;;
59734;SDS011;64362;45.620;4.920;2023-03-01T12:55:53;9.07;;;7.88;;
59734;SDS011;64362;45.620;4.920;2023-03-01T13:01:06;9.57;;;8.57;;
59734;SDS011;64362;45.620;4.920;2023-03-01T13:03:56;9.95;;;7.78;;
59734;SDS011;64362;45.620;4.920;2023-03-01T13:12:02;9.35;;;8.27;;
59734;SDS011;64362;45.620;4.920;2023-03-01T13:16:56;9.40;;;7.93;;
59734;SDS011;64362;45.620;4.920;2023-03-01T13:19:23;9.13;;;7.15;;
59734;SDS011;64362;45.620;4.920;2023-03-01T13:21:54;8.77;;;7.88;;
59734;SDS011;64362;45.620;4.920;2023-03-01T13:29:49;9.10;;;8.10;;
59734;SDS011;64362;45.620;4.920;2023-03-01T13:32:23;9.18;;;8.27;;
59734;SDS011;64362;45.620;4.920;2023-03-01T13:34:50;9.57;;;7.97;;
59734;SDS011;64362;45.620;4.920;2023-03-01T13:37:21;10.45;;;8.57;;
59734;SDS011;64362;45.620;4.920;2023-03-01T13:39:49;8.75;;;7.85;;
59734;SDS011;64362;45.620;4.920;2023-03-01T13:44:54;9.23;;;8.25;;
59734;SDS011;64362;45.620;4.920;2023-03-01T13:47:19;9.27;;;8.15;;
59734;SDS011;64362;45.620;4.920;2023-03-01T13:49:50;10.50;;;8.95;;
59734;SDS011;64362;45.620;4.920;2023-03-01T13:55:17;10.20;;;9.10;;
59734;SDS011;64362;45.620;4.920;2023-03-01T14:00:37;9.70;;;8.20;;
59734;SDS011;64362;45.620;4.920;2023-03-01T14:03:08;9.70;;;8.68;;
59734;SDS011;64362;45.620;4.920;2023-03-01T14:05:35;8.52;;;7.63;;
59734;SDS011;64362;45.620;4.920;2023-03-01T14:08:05;8.73;;;7.40;;
59734;SDS011;64362;45.620;4.920;2023-03-01T14:10:44;8.35;;;7.30;;
59734;SDS011;64362;45.620;4.920;2023-03-01T14:13:47;7.45;;;6.68;;
59734;SDS011;64362;45.620;4.920;2023-03-01T14:16:33;9.55;;;7.45;;
59734;SDS011;64362;45.620;4.920;2023-03-01T14:19:20;7.82;;;6.95;;
59734;SDS011;64362;45.620;4.920;2023-03-01T14:24:58;7.90;;;6.32;;
59734;SDS011;64362;45.620;4.920;2023-03-01T14:27:27;6.65;;;6.00;;
59734;SDS011;64362;45.620;4.920;2023-03-01T14:29:56;7.63;;;6.47;;
59734;SDS011;64362;45.620;4.920;2023-03-01T14:32:25;7.03;;;6.32;;
59734;SDS011;64362;45.620;4.920;2023-03-01T14:34:55;7.32;;;6.07;;
59734;SDS011;64362;45.620;4.920;2023-03-01T14:37:22;7.60;;;6.18;;
59734;SDS011;64362;45.620;4.920;2023-03-01T14:39:55;7.65;;;6.63;;
59734;SDS011;64362;45.620;4.920;2023-03-01T14:42:22;6.38;;;5.78;;
59734;SDS011;64362;45.620;4.920;2023-03-01T14:44:52;6.90;;;6.18;;
59734;SDS011;64362;45.620;4.920;2023-03-01T14:47:27;6.75;;;6.15;;
59734;SDS011;64362;45.620;4.920;2023-03-01T14:49:57;7.75;;;6.15;;
59734;SDS011;64362;45.620;4.920;2023-03-01T14:52:31;8.40;;;6.40;;
59734;SDS011;64362;45.620;4.920;2023-03-01T14:55:15;8.20;;;6.60;;
59734;SDS011;64362;45.620;4.920;2023-03-01T14:57:43;7.32;;;6.55;;
59734;SDS011;64362;45.620;4.920;2023-03-01T15:00:10;6.75;;;6.05;;
59734;SDS011;64362;45.620;4.920;2023-03-01T15:02:43;7.50;;;6.10;;
59734;SDS011;64362;45.620;4.920;2023-03-01T15:05:09;6.72;;;6.03;;
59734;SDS011;64362;45.620;4.920;2023-03-01T15:07:38;7.10;;;6.40;;
59734;SDS011;64362;45.620;4.920;2023-03-01T15:10:06;7.43;;;6.20;;
59734;SDS011;64362;45.620;4.920;2023-03-01T15:12:37;7.18;;;6.43;;
59734;SDS011;64362;45.620;4.920;2023-03-01T15:15:21;6.72;;;6.05;;
59734;SDS011;64362;45.620;4.920;2023-03-01T15:17:58;7.53;;;6.80;;
59734;SDS011;64362;45.620;4.920;2023-03-01T15:20:25;7.07;;;6.38;;
59734;SDS011;64362;45.620;4.920;2023-03-01T15:22:55;7.20;;;6.18;;
59734;SDS011;64362;45.620;4.920;2023-03-01T15:25:26;6.75;;;6.03;;
59734;SDS011;64362;45.620;4.920;2023-03-01T15:27:53;6.80;;;6.20;;
59734;SDS011;64362;45.620;4.920;2023-03-01T15:30:27;6.50;;;5.90;;
59734;SDS011;64362;45.620;4.920;2023-03-01T15:35:48;7.72;;;6.38;;
59734;SDS011;64362;45.620;4.920;2023-03-01T15:38:29;7.28;;;6.57;;
59734;SDS011;64362;45.620;4.920;2023-03-01T15:41:04;7.57;;;6.80;;
59734;SDS011;64362;45.620;4.920;2023-03-01T15:43:44;7.50;;;6.70;;
59734;SDS011;64362;45.620;4.920;2023-03-01T15:46:18;7.50;;;6.75;;
59734;SDS011;64362;45.620;4.920;2023-03-01T15:48:48;7.25;;;6.50;;
59734;SDS011;64362;45.620;4.920;2023-03-01T15:51:17;7.82;;;7.03;;
59734;SDS011;64362;45.620;4.920;2023-03-01T15:53:51;7.18;;;6.47;;
59734;SDS011;64362;45.620;4.920;2023-03-01T15:56:18;8.10;;;6.90;;
59734;SDS011;64362;45.620;4.920;2023-03-01T15:58:43;7.63;;;6.53;;
59734;SDS011;64362;45.620;4.920;2023-03-01T16:01:18;7.50;;;6.70;;
59734;SDS011;64362;45.620;4.920;2023-03-01T16:03:44;7.47;;;6.78;;
59734;SDS011;64362;45.620;4.920;2023-03-01T16:06:10;8.60;;;7.47;;
59734;SDS011;64362;45.620;4.920;2023-03-01T16:08:36;7.65;;;6.70;;
59734;SDS011;64362;45.620;4.920;2023-03-01T16:11:03;7.05;;;6.35;;
59734;SDS011;64362;45.620;4.920;2023-03-01T16:13:31;7.45;;;6.65;;
59734;SDS011;64362;45.620;4.920;2023-03-01T16:15:57;7.93;;;6.97;;
59734;SDS011;64362;45.620;4.920;2023-03-01T16:18:23;6.82;;;6.10;;
59734;SDS011;64362;45.620;4.920;2023-03-01T16:20:48;7.28;;;6.57;;
59734;SDS011;64362;45.620;4.920;2023-03-01T16:23:14;7.22;;;6.32;;
59734;SDS011;64362;45.620;4.920;2023-03-01T16:25:40;7.10;;;6.13;;
59734;SDS011;64362;45.620;4.920;2023-03-01T16:28:06;7.10;;;6.50;;
59734;SDS011;64362;45.620;4.920;2023-03-01T16:30:35;7.00;;;6.22;;
59734;SDS011;64362;45.620;4.920;2023-03-01T16:33:01;7.78;;;6.57;;
59734;SDS011;64362;45.620;4.920;2023-03-01T16:35:27;7.20;;;6.50;;
59734;SDS011;64362;45.620;4.920;2023-03-01T16:37:52;7.25;;;6.55;;
59734;SDS011;64362;45.620;4.920;2023-03-01T16:40:23;7.95;;;7.20;;
59734;SDS011;64362;45.620;4.920;2023-03-01T16:42:52;7.93;;;7.13;;
59734;SDS011;64362;45.620;4.920;2023-03-01T16:45:18;7.57;;;6.85;;
59734;SDS011;64362;45.620;4.920;2023-03-01T16:47:44;7.55;;;6.60;;
59734;SDS011;64362;45.620;4.920;2023-03-01T16:50:09;7.95;;;6.45;;
59734;SDS011;64362;45.620;4.920;2023-03-01T16:52:35;7.43;;;6.63;;
59734;SDS011;64362;45.620;4.920;2023-03-01T16:55:05;12.45;;;7.00;;
59734;SDS011;64362;45.620;4.920;2023-03-01T16:57:33;10.73;;;6.47;;
59734;SDS011;64362;45.620;4.920;2023-03-01T16:59:59;9.10;;;6.65;;
59734;SDS011;64362;45.620;4.920;2023-03-01T17:02:24;9.55;;;6.70;;
59734;SDS011;64362;45.620;4.920;2023-03-01T17:04:53;8.95;;;7.18;;
59734;SDS011;64362;45.620;4.920;2023-03-01T17:07:19;10.38;;;6.45;;
59734;SDS011;64362;45.620;4.920;2023-03-01T17:09:44;10.77;;;6.50;;